Time;durP1;ratioP1;P1;durP2;ratioP2;P2;SDS_P1;SDS_P2;PMS_P1;PMS_P2;Temp;Humidity;BMP_temperature;BMP_pressure;BME280_temperature;BME280_humidity;BME280_pressure;Samples;Min_cycle;Max_cycle;Signal;HPM_P1;HPM_P2
2021/07/05 00:00:40;;;;;;;8.93;7.90;;;14.00;99.90;;;;;;5038477;28;20467;-65
2021/07/05 00:03:08;;;;;;;9.60;8.70;;;13.90;99.90;;;;;;5031914;28;21402;-65
2021/07/05 00:05:38;;;;;;;10.63;8.80;;;14.00;99.90;;;;;;5026052;28;20970;-65
2021/07/05 00:08:07;;;;;;;9.17;7.83;;;14.00;99.90;;;;;;5027035;28;20460;-65
2021/07/05 00:10:34;;;;;;;11.93;8.67;;;14.00;99.90;;;;;;5026126;28;20445;-65
2021/07/05 00:13:04;;;;;;;9.93;8.97;;;14.00;99.90;;;;;;5020569;28;20538;-65
2021/07/05 00:15:34;;;;;;;9.83;9.03;;;14.10;99.90;;;;;;5037846;28;20475;-65
2021/07/05 00:18:04;;;;;;;10.37;9.27;;;14.10;99.90;;;;;;5038980;28;20946;-65
2021/07/05 00:20:33;;;;;;;9.93;8.90;;;14.10;99.90;;;;;;5019196;28;20476;-65
2021/07/05 00:23:02;;;;;;;10.60;9.60;;;14.00;99.90;;;;;;5025506;28;20471;-65
2021/07/05 00:25:31;;;;;;;10.57;9.63;;;14.00;99.90;;;;;;5038542;28;20998;-65
2021/07/05 00:27:58;;;;;;;11.53;9.70;;;14.10;99.90;;;;;;5038229;28;20463;-65
2021/07/05 00:30:26;;;;;;;9.90;8.90;;;14.10;99.90;;;;;;5038106;28;20513;-65
2021/07/05 00:32:54;;;;;;;11.50;9.30;;;14.10;99.90;;;;;;5038596;28;20467;-65
2021/07/05 00:35:23;;;;;;;11.17;8.50;;;14.10;99.90;;;;;;5038138;28;20467;-66
2021/07/05 00:37:50;;;;;;;11.00;9.70;;;14.00;99.90;;;;;;5038162;28;20533;-66
2021/07/05 00:40:18;;;;;;;9.33;8.50;;;14.00;99.90;;;;;;5023572;28;20469;-66
2021/07/05 00:42:47;;;;;;;11.17;9.07;;;14.10;99.90;;;;;;5019613;28;20880;-66
2021/07/05 00:45:15;;;;;;;9.07;8.27;;;14.10;99.90;;;;;;5019518;28;21198;-66
2021/07/05 00:47:45;;;;;;;7.93;7.13;;;14.10;99.90;;;;;;5019215;28;20464;-66
2021/07/05 00:50:14;;;;;;;9.73;8.83;;;14.10;99.90;;;;;;5020091;28;20490;-66
2021/07/05 00:52:42;;;;;;;8.97;8.07;;;14.10;99.90;;;;;;5038393;28;20533;-66
2021/07/05 00:55:12;;;;;;;8.70;7.90;;;14.10;99.90;;;;;;5038060;28;20521;-66
2021/07/05 00:57:40;;;;;;;8.20;7.50;;;14.00;99.90;;;;;;5037694;28;20512;-66
2021/07/05 01:00:12;;;;;;;10.67;9.50;;;14.00;99.90;;;;;;5035345;28;20441;-66
2021/07/05 01:02:39;;;;;;;9.07;8.27;;;14.00;99.90;;;;;;5028797;28;20494;-66
2021/07/05 01:05:08;;;;;;;8.97;8.07;;;14.00;99.90;;;;;;5031060;28;21393;-66
2021/07/05 01:07:36;;;;;;;8.30;7.50;;;14.00;99.90;;;;;;5018578;28;20766;-66
2021/07/05 01:10:04;;;;;;;10.40;8.07;;;14.00;99.90;;;;;;5030745;28;20459;-66
2021/07/05 01:12:31;;;;;;;8.70;7.80;;;13.90;99.90;;;;;;5027927;28;20750;-66
2021/07/05 01:14:58;;;;;;;7.43;6.73;;;14.00;99.90;;;;;;5018437;28;20892;-66
2021/07/05 01:17:27;;;;;;;7.50;6.80;;;14.00;99.90;;;;;;5033883;28;20556;-66
2021/07/05 01:19:54;;;;;;;8.27;7.50;;;14.00;99.90;;;;;;5022197;28;20468;-66
2021/07/05 01:22:22;;;;;;;8.40;7.50;;;14.00;99.90;;;;;;5018699;28;20475;-66
2021/07/05 01:24:50;;;;;;;8.43;7.73;;;14.00;99.90;;;;;;5026716;28;20487;-66
2021/07/05 01:27:20;;;;;;;7.80;7.00;;;14.00;99.90;;;;;;5037099;28;20463;-66
2021/07/05 01:29:50;;;;;;;7.27;6.67;;;13.90;99.90;;;;;;5035423;28;20757;-66
2021/07/05 01:32:18;;;;;;;7.37;6.67;;;13.80;99.90;;;;;;5037142;28;20772;-66
2021/07/05 01:34:45;;;;;;;8.27;7.40;;;13.90;99.90;;;;;;5037158;28;20817;-66
2021/07/05 01:37:12;;;;;;;8.27;7.63;;;13.90;99.90;;;;;;5037403;28;20516;-66
2021/07/05 01:39:42;;;;;;;12.30;9.37;;;13.90;99.90;;;;;;5037041;28;20837;-66
2021/07/05 01:42:10;;;;;;;8.70;7.80;;;13.80;99.90;;;;;;5025475;28;20514;-66
2021/07/05 01:44:37;;;;;;;8.07;7.27;;;13.80;99.90;;;;;;5018518;28;20910;-66
2021/07/05 01:47:05;;;;;;;7.40;6.23;;;13.90;99.90;;;;;;5018221;28;20468;-66
2021/07/05 01:49:32;;;;;;;7.90;7.20;;;14.00;99.90;;;;;;5017595;28;20472;-66
2021/07/05 01:51:59;;;;;;;8.53;7.37;;;14.00;99.90;;;;;;5018047;28;20871;-66
2021/07/05 01:54:27;;;;;;;6.47;5.50;;;13.90;99.90;;;;;;5030033;28;20475;-66
2021/07/05 01:56:55;;;;;;;6.50;6.00;;;13.90;99.90;;;;;;5037196;28;20553;-66
2021/07/05 01:59:22;;;;;;;7.30;6.67;;;13.80;99.90;;;;;;5035037;28;20479;-67
2021/07/05 02:01:49;;;;;;;6.20;5.70;;;13.80;99.90;;;;;;5037028;28;20467;-67
2021/07/05 02:04:17;;;;;;;6.63;6.13;;;13.80;99.90;;;;;;5017080;28;20702;-67
2021/07/05 02:06:44;;;;;;;6.33;5.83;;;13.80;99.90;;;;;;5017045;28;20460;-67
2021/07/05 02:09:11;;;;;;;6.63;6.13;;;13.80;99.90;;;;;;5018079;28;20974;-67
2021/07/05 02:11:41;;;;;;;6.57;5.90;;;13.80;99.90;;;;;;5018172;28;20571;-66
2021/07/05 02:14:09;;;;;;;6.90;6.20;;;13.80;99.90;;;;;;5017238;28;20468;-66
2021/07/05 02:16:36;;;;;;;7.80;6.50;;;13.70;99.90;;;;;;5017364;28;20479;-66
2021/07/05 02:19:04;;;;;;;6.87;6.23;;;13.80;99.90;;;;;;5018077;28;20530;-66
2021/07/05 02:21:31;;;;;;;6.77;5.93;;;13.80;99.90;;;;;;5017328;28;20540;-66
2021/07/05 02:23:58;;;;;;;6.60;5.77;;;13.90;99.90;;;;;;5017707;28;20535;-65
2021/07/05 02:26:27;;;;;;;6.33;5.70;;;13.90;99.90;;;;;;5018017;28;20472;-65
2021/07/05 02:28:56;;;;;;;6.87;5.27;;;13.90;99.90;;;;;;5021268;28;20529;-65
2021/07/05 02:31:24;;;;;;;6.80;6.20;;;14.00;99.90;;;;;;5035506;28;20479;-65
2021/07/05 02:33:51;;;;;;;7.27;5.70;;;14.00;99.90;;;;;;5036180;28;20472;-65
2021/07/05 02:36:18;;;;;;;5.30;4.80;;;14.10;99.90;;;;;;5036154;28;20474;-65
2021/07/05 02:38:47;;;;;;;6.07;5.53;;;14.10;99.90;;;;;;5034193;28;20491;-65
2021/07/05 02:41:15;;;;;;;12.23;6.27;;;14.20;99.90;;;;;;5035974;28;20569;-65
2021/07/05 02:43:45;;;;;;;6.73;5.53;;;14.30;99.90;;;;;;5036566;28;20477;-65
2021/07/05 02:46:14;;;;;;;5.30;4.80;;;14.30;99.90;;;;;;5034634;28;20911;-65
2021/07/05 02:48:43;;;;;;;5.17;4.77;;;14.40;99.90;;;;;;5037076;28;20463;-65
2021/07/05 02:51:11;;;;;;;5.60;5.17;;;14.50;99.90;;;;;;5036098;28;20521;-65
2021/07/05 02:53:38;;;;;;;15.30;13.83;;;14.60;99.90;;;;;;5036440;28;20525;-65
2021/07/05 02:56:06;;;;;;;18.93;6.60;;;14.60;99.90;;;;;;5035892;28;20473;-65
2021/07/05 02:58:34;;;;;;;5.13;4.73;;;14.60;99.90;;;;;;5034385;28;20500;-65
2021/07/05 03:01:04;;;;;;;4.40;4.00;;;14.60;99.90;;;;;;5036262;28;20914;-65
2021/07/05 03:03:31;;;;;;;5.77;5.27;;;14.70;99.90;;;;;;5027333;28;20482;-65
2021/07/05 03:05:59;;;;;;;4.83;4.33;;;14.70;99.90;;;;;;5027546;28;20528;-65
2021/07/05 03:08:26;;;;;;;5.27;4.83;;;14.70;99.90;;;;;;5023511;28;20456;-65
2021/07/05 03:10:54;;;;;;;4.70;4.23;;;14.70;99.90;;;;;;5038748;28;20489;-65
2021/07/05 03:13:21;;;;;;;4.90;4.50;;;14.80;99.90;;;;;;5035253;28;20551;-65
2021/07/05 03:15:50;;;;;;;5.03;4.43;;;14.80;99.90;;;;;;5020653;28;20494;-65
2021/07/05 03:18:18;;;;;;;4.83;4.43;;;14.90;99.90;;;;;;5021287;28;20508;-65
2021/07/05 03:20:47;;;;;;;4.97;4.30;;;14.90;99.90;;;;;;5020470;28;20897;-65
2021/07/05 03:23:17;;;;;;;4.43;4.03;;;14.90;99.90;;;;;;5020834;28;20526;-64
2021/07/05 03:25:47;;;;;;;5.60;3.97;;;14.90;99.90;;;;;;5020341;28;20464;-64
2021/07/05 03:28:16;;;;;;;4.63;4.23;;;14.90;99.90;;;;;;5020947;28;20464;-64
2021/07/05 03:30:45;;;;;;;5.10;4.70;;;14.90;99.90;;;;;;5033424;28;20824;-64
2021/07/05 03:33:13;;;;;;;6.03;4.23;;;15.00;99.90;;;;;;5039867;28;20528;-64
2021/07/05 03:35:41;;;;;;;6.23;4.13;;;15.00;99.90;;;;;;5039370;28;20455;-64
2021/07/05 03:38:10;;;;;;;4.47;4.03;;;15.00;99.90;;;;;;5037728;28;20556;-64
2021/07/05 03:40:40;;;;;;;5.13;4.73;;;15.10;99.90;;;;;;5021089;28;20526;-64
2021/07/05 03:43:08;;;;;;;4.33;3.97;;;15.10;99.90;;;;;;5020468;28;20912;-64
2021/07/05 03:45:37;;;;;;;8.57;4.13;;;15.20;99.90;;;;;;5019924;28;20526;-64
2021/07/05 03:48:08;;;;;;;5.10;4.50;;;15.30;99.90;;;;;;5020213;28;20503;-64
2021/07/05 03:50:36;;;;;;;4.60;4.17;;;15.30;99.90;;;;;;5020509;28;20845;-64
2021/07/05 03:53:03;;;;;;;4.13;3.63;;;15.30;99.90;;;;;;5021949;28;20458;-65
2021/07/05 03:55:31;;;;;;;4.53;3.73;;;15.40;99.90;;;;;;5039122;28;20532;-64
2021/07/05 03:58:01;;;;;;;4.63;3.57;;;15.40;99.90;;;;;;5039430;28;20494;-64
2021/07/05 04:00:30;;;;;;;3.83;3.53;;;15.50;99.90;;;;;;5036690;28;20537;-65
2021/07/05 04:02:58;;;;;;;5.40;4.90;;;15.50;99.90;;;;;;5025980;28;20484;-65
2021/07/05 04:05:26;;;;;;;9.17;4.13;;;15.60;99.90;;;;;;5016954;28;20472;-65
2021/07/05 04:07:54;;;;;;;6.93;4.20;;;15.60;99.90;;;;;;5020036;28;20464;-65
2021/07/05 04:10:21;;;;;;;5.33;3.80;;;15.70;99.90;;;;;;5019716;28;21003;-65
2021/07/05 04:12:48;;;;;;;6.70;3.90;;;15.70;99.90;;;;;;5019087;28;20467;-65
2021/07/05 04:15:18;;;;;;;4.70;4.13;;;15.70;99.90;;;;;;5019297;28;20460;-65
2021/07/05 04:17:45;;;;;;;3.97;3.60;;;15.70;99.90;;;;;;5020068;28;20496;-65
2021/07/05 04:20:15;;;;;;;4.20;3.80;;;15.70;99.90;;;;;;5020067;28;20475;-65
2021/07/05 04:22:43;;;;;;;4.73;4.00;;;15.70;99.90;;;;;;5019275;28;20529;-65
2021/07/05 04:57:27;;;;;;;3.03;2.83;;;15.70;99.90;;;;;;2846670;22;20492;-64
2021/07/05 04:59:54;;;;;;;2.97;2.77;;;15.60;99.90;;;;;;5035159;28;20906;-63
2021/07/05 05:02:23;;;;;;;3.17;2.87;;;15.50;99.90;;;;;;5021331;28;20445;-63
2021/07/05 05:04:52;;;;;;;4.53;2.60;;;15.30;99.90;;;;;;5014588;28;20471;-63
2021/07/05 05:07:19;;;;;;;2.97;2.67;;;15.20;99.90;;;;;;5023513;28;20903;-64
2021/07/05 05:09:51;;;;;;;2.30;2.10;;;15.10;99.90;;;;;;5035230;28;20794;-62
2021/07/05 05:12:28;;;;;;;3.10;2.60;;;15.00;99.90;;;;;;5037887;28;20938;-63
2021/07/05 05:14:55;;;;;;;2.87;2.67;;;15.00;99.90;;;;;;5030870;28;20758;-62
2021/07/05 05:17:23;;;;;;;4.40;3.17;;;15.00;99.90;;;;;;5031188;28;20470;-62
2021/07/05 05:19:50;;;;;;;3.93;3.50;;;14.90;99.90;;;;;;5030950;28;20486;-63
2021/07/05 05:22:17;;;;;;;3.43;3.03;;;14.80;99.90;;;;;;5026368;28;20828;-62
2021/07/05 05:24:44;;;;;;;3.77;2.53;;;14.60;99.90;;;;;;5017191;28;20481;-62
2021/07/05 05:27:11;;;;;;;3.17;2.47;;;14.40;99.90;;;;;;5017940;28;20896;-62
2021/07/05 05:29:40;;;;;;;3.20;2.90;;;14.40;99.90;;;;;;5031982;28;20533;-63
2021/07/05 05:32:07;;;;;;;2.80;2.60;;;14.20;99.90;;;;;;5033971;28;20889;-63
2021/07/05 05:34:35;;;;;;;3.57;3.00;;;14.20;99.90;;;;;;5037155;28;20474;-63
2021/07/05 05:37:02;;;;;;;3.30;3.00;;;14.20;99.90;;;;;;5037187;28;20922;-63
2021/07/05 05:39:32;;;;;;;3.60;3.30;;;14.20;99.90;;;;;;5036482;28;20549;-63
2021/07/05 05:42:05;;;;;;;3.53;2.70;;;14.20;99.90;;;;;;5037402;28;20838;-64
2021/07/05 05:44:32;;;;;;;2.73;2.50;;;14.20;99.90;;;;;;5037654;28;20463;-64
2021/07/05 05:47:00;;;;;;;2.70;2.50;;;14.10;99.90;;;;;;5036878;28;20441;-64
2021/07/05 05:49:27;;;;;;;4.57;2.97;;;13.90;99.90;;;;;;5037177;28;20463;-64
2021/07/05 05:51:54;;;;;;;5.50;2.67;;;14.00;99.90;;;;;;5032022;28;20947;-65
2021/07/05 05:54:22;;;;;;;4.00;2.53;;;13.90;99.90;;;;;;5018158;28;20947;-65
2021/07/05 05:56:52;;;;;;;2.90;2.60;;;13.90;99.90;;;;;;5018172;28;20526;-64
2021/07/05 05:59:20;;;;;;;5.13;3.07;;;13.90;99.90;;;;;;5020745;28;20473;-65
2021/07/05 06:01:49;;;;;;;4.37;3.87;;;14.00;99.90;;;;;;5037391;28;20804;-65
2021/07/05 06:04:21;;;;;;;4.73;3.97;;;14.20;99.90;;;;;;5017278;28;20472;-66
2021/07/05 06:06:48;;;;;;;5.03;3.80;;;14.20;99.90;;;;;;5027932;28;20459;-65
2021/07/05 06:09:15;;;;;;;3.40;3.10;;;14.30;99.90;;;;;;5032532;28;20456;-65
2021/07/05 06:11:43;;;;;;;4.73;3.33;;;14.30;99.90;;;;;;5018044;28;20468;-65
2021/07/05 06:14:10;;;;;;;4.30;3.90;;;14.40;99.90;;;;;;5017151;28;20467;-65
2021/07/05 06:16:37;;;;;;;3.23;2.93;;;14.40;99.90;;;;;;5017695;28;20873;-65
2021/07/05 06:19:05;;;;;;;3.00;2.67;;;14.40;99.90;;;;;;5017503;28;20835;-65
2021/07/05 06:21:34;;;;;;;3.33;3.00;;;14.40;99.90;;;;;;5021847;28;20470;-66
2021/07/05 06:24:01;;;;;;;4.00;3.30;;;14.50;99.90;;;;;;5036436;28;20471;-66
2021/07/05 06:26:28;;;;;;;4.07;2.80;;;14.60;99.90;;;;;;5036524;28;20445;-66
2021/07/05 06:28:55;;;;;;;5.73;3.00;;;14.70;99.90;;;;;;5026616;28;20464;-66
2021/07/05 06:31:23;;;;;;;3.80;2.97;;;14.70;99.90;;;;;;5035096;28;20474;-66
2021/07/05 06:33:50;;;;;;;5.40;3.57;;;14.80;99.90;;;;;;5034130;28;20574;-67
2021/07/05 06:36:17;;;;;;;3.60;3.07;;;14.80;99.90;;;;;;5037456;28;20470;-67
2021/07/05 06:38:48;;;;;;;3.80;3.37;;;15.00;99.90;;;;;;5039358;28;20491;-67
2021/07/05 06:41:15;;;;;;;3.83;2.90;;;15.10;99.90;;;;;;5021610;28;20471;-67
2021/07/05 06:43:42;;;;;;;3.70;3.10;;;15.20;99.90;;;;;;5040896;28;20470;-67
2021/07/05 06:46:10;;;;;;;3.60;3.20;;;15.40;99.90;;;;;;5040753;28;20507;-67
2021/07/05 06:48:38;;;;;;;3.77;3.30;;;15.60;99.90;;;;;;5040112;28;20458;-67
2021/07/05 06:51:07;;;;;;;3.67;2.97;;;15.70;99.90;;;;;;5040513;28;20474;-67
2021/07/05 06:53:34;;;;;;;3.27;2.60;;;15.80;99.90;;;;;;5040712;28;20565;-67
2021/07/05 06:56:06;;;;;;;3.10;2.80;;;15.90;99.90;;;;;;5040594;28;20470;-67
2021/07/05 06:58:33;;;;;;;3.40;3.10;;;16.10;99.90;;;;;;5020642;28;20503;-67
2021/07/05 07:01:01;;;;;;;3.33;2.50;;;16.20;99.90;;;;;;5037741;28;20482;-67
2021/07/05 07:03:31;;;;;;;2.50;2.30;;;16.30;99.90;;;;;;5028521;28;20470;-67
2021/07/05 07:06:01;;;;;;;4.53;2.40;;;16.30;99.90;;;;;;5025387;28;20847;-67
2021/07/05 07:08:30;;;;;;;2.93;2.37;;;16.50;99.90;;;;;;5039524;28;20458;-67
2021/07/05 07:10:59;;;;;;;3.20;2.90;;;16.70;99.90;;;;;;5021315;28;20522;-66
2021/07/05 07:13:28;;;;;;;3.10;2.80;;;16.60;99.90;;;;;;5027283;28;20462;-67
2021/07/05 07:15:57;;;;;;;2.83;2.63;;;16.80;99.90;;;;;;5040381;28;20822;-67
2021/07/05 07:21:08;;;;;;;3.67;2.77;;;16.80;99.90;;;;;;5037618;28;20430;-66
2021/07/05 07:23:35;;;;;;;4.07;3.00;;;17.00;99.90;;;;;;5021288;28;20467;-67
2021/07/05 07:26:02;;;;;;;3.80;3.40;;;17.10;99.90;;;;;;5038372;28;20467;-66
2021/07/05 07:28:33;;;;;;;4.63;3.53;;;17.10;99.90;;;;;;5038899;28;20471;-66
2021/07/05 07:31:00;;;;;;;4.80;3.30;;;17.30;99.90;;;;;;5039484;28;20467;-65
2021/07/05 07:33:27;;;;;;;3.67;3.10;;;17.30;99.90;;;;;;5039990;28;20470;-66
2021/07/05 07:35:58;;;;;;;5.10;3.40;;;17.30;99.90;;;;;;5039303;28;20471;-66
2021/07/05 07:38:27;;;;;;;4.57;3.80;;;17.40;99.90;;;;;;5039166;28;20850;-65
2021/07/05 07:40:54;;;;;;;4.10;3.33;;;17.40;99.90;;;;;;5021075;28;20730;-66
2021/07/05 07:43:25;;;;;;;5.03;3.90;;;17.30;99.90;;;;;;5020413;28;20522;-66
2021/07/05 07:45:53;;;;;;;4.60;3.83;;;17.30;99.90;;;;;;5039767;28;20467;-65
2021/07/05 07:48:23;;;;;;;4.93;4.37;;;17.40;99.90;;;;;;5018928;28;20478;-65
2021/07/05 07:50:50;;;;;;;5.73;4.20;;;17.60;99.90;;;;;;5033509;28;20471;-65
2021/07/05 07:53:17;;;;;;;4.93;4.13;;;17.70;99.90;;;;;;5033228;28;20466;-64
2021/07/05 07:55:44;;;;;;;4.67;4.27;;;17.90;99.90;;;;;;5032795;28;20466;-64
2021/07/05 07:58:11;;;;;;;10.73;4.67;;;17.90;99.90;;;;;;5023009;28;20487;-64
2021/07/05 08:00:41;;;;;;;5.27;4.77;;;17.80;99.90;;;;;;5030533;28;20524;-64
2021/07/05 08:03:11;;;;;;;9.07;4.77;;;17.50;99.90;;;;;;5016138;28;20545;-64
2021/07/05 08:05:42;;;;;;;5.20;4.17;;;17.40;99.90;;;;;;5027462;28;20454;-64
2021/07/05 08:08:14;;;;;;;6.43;4.40;;;17.60;99.90;;;;;;5028229;28;20471;-63
2021/07/05 08:10:44;;;;;;;5.50;5.00;;;17.80;99.90;;;;;;5028403;28;20594;-63
2021/07/05 08:13:11;;;;;;;6.00;4.70;;;17.80;99.90;;;;;;5026663;28;20459;-63
2021/07/05 08:15:38;;;;;;;7.30;5.00;;;17.90;99.90;;;;;;5030688;28;20459;-62
2021/07/05 08:18:05;;;;;;;4.33;3.93;;;18.10;99.90;;;;;;5036177;28;20466;-63
2021/07/05 08:20:35;;;;;;;5.40;4.90;;;18.30;99.90;;;;;;5037013;28;20534;-63
2021/07/05 08:23:03;;;;;;;5.70;4.60;;;18.70;99.90;;;;;;5034574;28;20466;-62
2021/07/05 08:25:30;;;;;;;5.30;4.40;;;19.20;99.90;;;;;;5038445;28;20521;-62
2021/07/05 08:27:58;;;;;;;4.63;4.17;;;19.80;99.90;;;;;;5037307;28;20507;-63
2021/07/05 08:30:26;;;;;;;5.40;4.90;;;20.20;99.90;;;;;;5018765;28;20438;-62
2021/07/05 08:32:54;;;;;;;8.03;4.50;;;20.50;99.90;;;;;;5038935;28;20545;-63
2021/07/05 08:35:23;;;;;;;6.47;5.10;;;20.80;99.90;;;;;;5019129;28;20831;-62
2021/07/05 08:37:54;;;;;;;7.37;4.70;;;20.90;99.90;;;;;;5019734;28;20727;-63
2021/07/05 08:40:25;;;;;;;5.83;4.60;;;20.80;99.90;;;;;;5024228;28;20499;-63
2021/07/05 08:42:55;;;;;;;4.93;4.53;;;20.50;99.90;;;;;;5031159;28;20860;-63
2021/07/05 08:45:26;;;;;;;5.70;4.73;;;20.60;99.90;;;;;;5035077;28;20548;-61
2021/07/05 08:47:55;;;;;;;7.30;4.47;;;21.10;99.90;;;;;;5035200;28;20898;-62
2021/07/05 08:50:27;;;;;;;5.97;4.20;;;20.70;99.90;;;;;;5035331;28;20902;-62
2021/07/05 08:52:56;;;;;;;4.87;4.47;;;20.60;99.90;;;;;;5035471;28;20475;-61
2021/07/05 08:55:26;;;;;;;5.30;3.70;;;20.60;99.90;;;;;;5035214;28;20521;-62
2021/07/05 08:57:57;;;;;;;5.47;4.97;;;20.70;99.90;;;;;;5034800;28;20494;-63
2021/07/05 09:00:26;;;;;;;8.10;6.07;;;20.50;99.90;;;;;;5032129;28;20923;-63
2021/07/05 09:02:58;;;;;;;7.07;6.37;;;20.20;99.90;;;;;;5028797;28;20480;-62
2021/07/05 09:05:27;;;;;;;8.60;6.30;;;20.00;99.90;;;;;;5013904;28;20907;-62
2021/07/05 09:08:03;;;;;;;8.00;7.20;;;20.00;99.90;;;;;;5015806;28;20558;-62
2021/07/05 09:10:41;;;;;;;11.47;7.10;;;20.20;99.90;;;;;;5017437;28;20472;-62
2021/07/05 09:13:12;;;;;;;8.13;7.20;;;20.30;99.90;;;;;;5015790;28;20521;-63
2021/07/05 09:15:43;;;;;;;6.83;5.73;;;20.40;99.90;;;;;;5015965;28;20554;-63
2021/07/05 09:18:46;;;;;;;6.93;6.33;;;20.60;99.90;;;;;;5019793;28;20468;-63
2021/07/05 09:21:18;;;;;;;6.27;5.70;;;20.60;99.90;;;;;;4929900;29;20558;-63
2021/07/05 09:24:02;;;;;;;6.73;6.13;;;20.80;99.90;;;;;;4933237;29;21006;-63
2021/07/05 09:26:32;;;;;;;6.60;5.97;;;20.50;99.90;;;;;;4916273;29;20471;-63
2021/07/05 09:29:01;;;;;;;6.90;6.30;;;20.40;99.90;;;;;;4917102;29;20475;-63
2021/07/05 09:31:33;;;;;;;7.40;6.63;;;20.30;99.90;;;;;;4934741;29;20467;-64
2021/07/05 09:34:02;;;;;;;7.20;5.70;;;20.20;99.90;;;;;;5020558;28;20508;-64
2021/07/05 09:36:30;;;;;;;7.70;4.93;;;20.20;99.90;;;;;;5015058;28;20464;-64
2021/07/05 09:39:10;;;;;;;5.63;5.13;;;20.00;99.90;;;;;;5015296;28;20518;-63
2021/07/05 09:41:37;;;;;;;5.97;5.33;;;19.50;99.90;;;;;;5015392;28;20472;-63
2021/07/05 09:44:10;;;;;;;5.37;4.87;;;19.40;99.90;;;;;;5015746;28;20471;-64
2021/07/05 09:46:41;;;;;;;7.77;5.90;;;19.50;99.90;;;;;;5024696;28;20502;-63
2021/07/05 09:49:18;;;;;;;8.00;6.80;;;19.40;99.90;;;;;;5018534;28;20563;-63
2021/07/05 09:51:52;;;;;;;7.60;7.00;;;19.30;99.90;;;;;;5034376;28;20746;-63
2021/07/05 09:54:26;;;;;;;6.03;5.43;;;19.30;99.90;;;;;;5034518;28;20811;-62
2021/07/05 09:56:54;;;;;;;9.13;6.60;;;19.30;99.90;;;;;;5033874;28;20494;-63
2021/07/05 09:59:23;;;;;;;9.70;6.70;;;19.40;99.90;;;;;;5034022;28;20869;-63
2021/07/05 10:01:55;;;;;;;7.50;6.83;;;19.40;99.90;;;;;;5032269;28;20454;-64
2021/07/05 10:04:26;;;;;;;6.80;6.20;;;19.60;99.90;;;;;;5013656;28;20974;-63
2021/07/05 10:06:58;;;;;;;7.40;6.60;;;19.70;99.90;;;;;;5018502;28;20950;-63
2021/07/05 10:09:45;;;;;;;6.13;5.53;;;20.00;99.90;;;;;;5027989;28;20892;-63
2021/07/05 10:12:23;;;;;;;6.57;6.07;;;20.30;99.90;;;;;;5014537;28;20502;-64
2021/07/05 10:14:58;;;;;;;7.13;6.40;;;20.70;99.90;;;;;;5019015;28;20446;-63
2021/07/05 10:17:29;;;;;;;6.70;5.10;;;21.40;99.90;;;;;;5021487;28;20467;-63
2021/07/05 10:20:00;;;;;;;5.07;4.60;;;21.60;99.90;;;;;;5023524;28;20511;-63
2021/07/05 10:22:28;;;;;;;5.93;4.63;;;22.30;99.90;;;;;;5031146;28;20467;-62
2021/07/05 10:24:57;;;;;;;5.17;4.60;;;22.70;96.90;;;;;;5033293;28;20541;-62
2021/07/05 10:27:25;;;;;;;4.37;4.07;;;22.80;95.80;;;;;;5033714;28;20478;-62
2021/07/05 10:29:55;;;;;;;4.40;3.80;;;23.50;96.00;;;;;;5023400;28;20476;-63
2021/07/05 10:32:22;;;;;;;4.90;4.23;;;23.60;92.10;;;;;;5014514;28;20500;-62
2021/07/05 10:34:55;;;;;;;4.07;3.67;;;23.70;94.20;;;;;;5014454;28;20472;-62
2021/07/05 10:37:31;;;;;;;4.43;4.03;;;24.00;88.00;;;;;;5013831;28;20472;-62
2021/07/05 10:40:01;;;;;;;3.70;3.40;;;24.40;91.00;;;;;;5014267;28;20499;-61
2021/07/05 10:42:36;;;;;;;6.37;4.20;;;24.80;84.40;;;;;;5014045;28;20490;-62
2021/07/05 10:45:05;;;;;;;4.57;4.17;;;24.50;85.00;;;;;;5020500;28;20478;-62
2021/07/05 10:47:44;;;;;;;5.37;4.10;;;24.30;85.70;;;;;;5032195;28;20536;-60
2021/07/05 10:50:58;;;;;;;3.90;3.40;;;24.30;85.10;;;;;;5014370;28;20777;-59
2021/07/05 10:53:57;;;;;;;5.10;4.30;;;24.50;83.20;;;;;;5027597;28;20459;-58
2021/07/05 10:56:43;;;;;;;4.00;3.60;;;24.60;84.40;;;;;;5013183;28;20471;-58
2021/07/05 10:59:40;;;;;;;3.90;3.50;;;25.00;82.00;;;;;;5028205;28;20518;-58
2021/07/05 11:02:37;;;;;;;3.70;3.40;;;24.20;80.10;;;;;;5030663;28;20899;-56
2021/07/05 11:05:29;;;;;;;4.37;3.97;;;23.80;81.00;;;;;;5008338;28;20470;-58
2021/07/05 11:07:57;;;;;;;4.47;3.73;;;24.20;80.70;;;;;;5013792;28;20456;-57
2021/07/05 11:10:30;;;;;;;3.93;3.63;;;24.50;80.60;;;;;;5014086;28;20459;-58
2021/07/05 11:13:05;;;;;;;3.93;3.63;;;25.20;79.90;;;;;;5015707;28;20562;-58
2021/07/05 11:15:52;;;;;;;3.67;3.37;;;25.70;74.10;;;;;;5033357;28;20463;-58
2021/07/05 11:19:05;;;;;;;4.43;2.83;;;25.60;75.70;;;;;;5022794;28;20553;-57
2021/07/05 11:22:01;;;;;;;3.57;3.37;;;25.00;74.90;;;;;;5019142;28;20995;-57
2021/07/05 11:24:54;;;;;;;3.43;3.07;;;24.80;75.00;;;;;;5019648;28;20767;-55
2021/07/05 11:27:48;;;;;;;4.20;3.60;;;24.10;76.70;;;;;;5032114;28;20932;-58
2021/07/05 11:30:22;;;;;;;4.30;3.70;;;24.10;78.30;;;;;;5022292;28;20459;-58
2021/07/05 11:32:51;;;;;;;4.20;3.30;;;23.60;80.00;;;;;;5028084;28;20475;-56
2021/07/05 11:35:34;;;;;;;4.07;3.67;;;23.40;78.00;;;;;;5020697;28;20467;-52
2021/07/05 11:38:04;;;;;;;3.27;2.97;;;23.30;77.60;;;;;;5021031;28;20959;-52
2021/07/05 11:40:44;;;;;;;3.50;3.20;;;23.30;77.10;;;;;;5022421;28;20545;-57
2021/07/05 11:43:15;;;;;;;3.30;3.00;;;23.40;77.10;;;;;;5028558;28;20530;-57
2021/07/05 11:45:45;;;;;;;3.40;3.10;;;23.30;76.40;;;;;;5020457;28;20468;-57
2021/07/05 11:48:29;;;;;;;5.77;3.23;;;23.30;76.40;;;;;;5027429;28;20526;-58
2021/07/05 11:51:02;;;;;;;3.60;3.30;;;23.30;75.60;;;;;;5024369;28;20482;-57
2021/07/05 11:53:31;;;;;;;3.73;3.47;;;23.70;76.60;;;;;;5027068;28;20466;-59
2021/07/05 11:55:59;;;;;;;4.60;3.30;;;23.90;75.00;;;;;;5025660;28;20880;-58
2021/07/05 11:58:28;;;;;;;4.53;2.63;;;23.90;73.40;;;;;;5023440;28;20849;-59
2021/07/05 12:00:57;;;;;;;4.43;3.33;;;24.20;71.70;;;;;;5033541;28;20856;-57
2021/07/05 12:03:29;;;;;;;3.70;3.03;;;24.40;71.20;;;;;;5027551;28;20562;-60
2021/07/05 12:06:00;;;;;;;6.23;3.70;;;23.90;70.70;;;;;;5024936;28;20478;-58
2021/07/05 12:08:27;;;;;;;3.27;3.07;;;23.80;71.50;;;;;;5019850;28;20479;-58
2021/07/05 12:10:58;;;;;;;4.00;2.73;;;23.60;73.00;;;;;;5038767;28;20529;-58
2021/07/05 12:13:29;;;;;;;3.97;3.20;;;23.90;72.30;;;;;;5032620;28;20474;-58
2021/07/05 12:16:00;;;;;;;3.60;2.70;;;23.70;71.30;;;;;;5030470;28;20479;-59
2021/07/05 12:18:28;;;;;;;3.63;3.20;;;23.80;72.50;;;;;;5036406;28;20471;-57
2021/07/05 12:20:59;;;;;;;3.10;2.80;;;23.90;73.80;;;;;;5027159;28;20495;-59
2021/07/05 12:23:34;;;;;;;3.77;3.47;;;23.90;72.10;;;;;;5019697;28;20470;-57
2021/07/05 12:26:14;;;;;;;3.57;3.27;;;23.60;73.70;;;;;;5024350;28;20470;-57
2021/07/05 12:29:04;;;;;;;4.20;3.00;;;23.30;72.60;;;;;;5025068;28;20497;-53
2021/07/05 12:31:34;;;;;;;3.93;2.97;;;23.00;73.80;;;;;;5025268;28;20456;-58
2021/07/05 12:34:03;;;;;;;3.40;3.10;;;22.80;74.90;;;;;;5025405;28;20464;-56
2021/07/05 12:36:35;;;;;;;3.67;3.37;;;22.60;75.00;;;;;;5030174;28;20476;-57
2021/07/05 12:39:04;;;;;;;3.60;3.03;;;22.50;75.80;;;;;;5026463;28;20469;-58
2021/07/05 12:41:36;;;;;;;3.10;2.80;;;22.50;77.50;;;;;;5029473;28;20837;-54
2021/07/05 12:44:13;;;;;;;2.90;2.60;;;22.40;77.00;;;;;;5020184;28;20464;-54
2021/07/05 12:46:40;;;;;;;3.50;3.20;;;22.20;78.60;;;;;;5028016;28;20476;-56
2021/07/05 12:49:07;;;;;;;3.20;2.90;;;22.00;80.30;;;;;;5029274;28;20506;-54
2021/07/05 12:51:36;;;;;;;3.13;2.83;;;21.70;80.70;;;;;;5025877;28;20518;-54
2021/07/05 12:54:17;;;;;;;4.43;3.30;;;21.50;82.00;;;;;;5019016;28;20940;-55
2021/07/05 12:56:44;;;;;;;4.03;3.63;;;21.60;80.60;;;;;;5019205;28;20730;-54
2021/07/05 12:59:20;;;;;;;3.70;2.73;;;21.60;79.00;;;;;;5026480;28;20797;-50
2021/07/05 13:01:51;;;;;;;4.83;4.43;;;21.70;79.40;;;;;;5037491;28;20509;-54
2021/07/05 13:04:21;;;;;;;4.20;3.30;;;22.00;78.60;;;;;;5018408;28;20483;-56
2021/07/05 13:07:00;;;;;;;3.00;2.80;;;22.10;78.10;;;;;;5016033;28;20463;-55
2021/07/05 13:09:28;;;;;;;3.17;2.80;;;22.00;79.20;;;;;;5016071;28;20468;-55
2021/07/05 13:12:02;;;;;;;3.50;2.97;;;21.70;78.50;;;;;;5016372;28;20468;-54
2021/07/05 13:14:34;;;;;;;3.70;3.40;;;21.50;82.20;;;;;;5014935;28;20468;-53
2021/07/05 13:17:05;;;;;;;4.20;2.90;;;21.10;80.90;;;;;;5016171;28;20568;-51
2021/07/05 13:19:33;;;;;;;2.90;2.70;;;21.20;83.10;;;;;;5016080;28;20468;-56
2021/07/05 13:22:13;;;;;;;3.00;2.60;;;21.20;81.60;;;;;;5021531;28;20856;-53
2021/07/05 13:24:44;;;;;;;3.40;2.83;;;21.10;83.70;;;;;;5028400;28;20465;-51
2021/07/05 13:27:22;;;;;;;3.20;2.90;;;20.70;85.80;;;;;;5023799;28;20877;-54
2021/07/05 13:29:52;;;;;;;3.53;3.20;;;20.60;88.20;;;;;;5027053;28;20479;-53
2021/07/05 13:32:22;;;;;;;3.70;3.40;;;20.40;89.80;;;;;;5021366;28;20931;-55
2021/07/05 13:34:50;;;;;;;5.63;3.30;;;20.20;92.40;;;;;;5021109;28;20892;-49
2021/07/05 13:37:22;;;;;;;3.50;3.03;;;20.20;94.00;;;;;;5015424;28;20478;-53